sensor_id;sensor_type;location;lat;lon;timestamp;P1;durP1;ratioP1;P2;durP2;ratioP2
5742;SDS011;2896;53.500;10.020;2022-09-09T00:01:35;49.33;;;29.27;;
5742;SDS011;2896;53.500;10.020;2022-09-09T00:04:09;54.27;;;30.90;;
5742;SDS011;2896;53.500;10.020;2022-09-09T00:06:45;54.07;;;30.07;;
5742;SDS011;2896;53.500;10.020;2022-09-09T00:09:15;51.10;;;30.60;;
5742;SDS011;2896;53.500;10.020;2022-09-09T00:11:45;53.67;;;30.60;;
5742;SDS011;2896;53.500;10.020;2022-09-09T00:14:18;51.83;;;31.50;;
5742;SDS011;2896;53.500;10.020;2022-09-09T00:16:51;55.23;;;32.80;;
5742;SDS011;2896;53.500;10.020;2022-09-09T00:19:22;52.80;;;31.03;;
5742;SDS011;2896;53.500;10.020;2022-09-09T00:21:59;70.60;;;36.80;;
5742;SDS011;2896;53.500;10.020;2022-09-09T00:24:35;75.40;;;35.67;;
5742;SDS011;2896;53.500;10.020;2022-09-09T00:27:08;73.00;;;33.30;;
5742;SDS011;2896;53.500;10.020;2022-09-09T00:29:42;100.53;;;33.77;;
5742;SDS011;2896;53.500;10.020;2022-09-09T00:32:14;59.83;;;31.70;;
5742;SDS011;2896;53.500;10.020;2022-09-09T00:34:53;178.97;;;36.70;;
5742;SDS011;2896;53.500;10.020;2022-09-09T00:37:26;45.50;;;29.00;;
5742;SDS011;2896;53.500;10.020;2022-09-09T00:39:57;53.87;;;31.03;;
5742;SDS011;2896;53.500;10.020;2022-09-09T00:42:31;81.10;;;30.73;;
5742;SDS011;2896;53.500;10.020;2022-09-09T00:45:09;86.63;;;29.27;;
5742;SDS011;2896;53.500;10.020;2022-09-09T00:47:58;64.73;;;31.50;;
5742;SDS011;2896;53.500;10.020;2022-09-09T00:50:38;46.17;;;27.93;;
5742;SDS011;2896;53.500;10.020;2022-09-09T00:53:22;49.10;;;27.40;;
5742;SDS011;2896;53.500;10.020;2022-09-09T00:56:01;84.90;;;31.10;;
5742;SDS011;2896;53.500;10.020;2022-09-09T00:58:35;40.10;;;26.37;;
5742;SDS011;2896;53.500;10.020;2022-09-09T01:01:02;35.97;;;24.17;;
5742;SDS011;2896;53.500;10.020;2022-09-09T01:03:33;42.67;;;26.33;;
5742;SDS011;2896;53.500;10.020;2022-09-09T01:06:02;39.87;;;23.80;;
5742;SDS011;2896;53.500;10.020;2022-09-09T01:08:53;40.83;;;24.87;;
5742;SDS011;2896;53.500;10.020;2022-09-09T01:11:30;48.23;;;27.60;;
5742;SDS011;2896;53.500;10.020;2022-09-09T01:14:05;34.40;;;22.77;;
5742;SDS011;2896;53.500;10.020;2022-09-09T01:16:40;36.37;;;24.70;;
5742;SDS011;2896;53.500;10.020;2022-09-09T01:19:07;34.97;;;22.53;;
5742;SDS011;2896;53.500;10.020;2022-09-09T01:21:46;36.87;;;23.20;;
5742;SDS011;2896;53.500;10.020;2022-09-09T01:24:24;43.57;;;26.17;;
5742;SDS011;2896;53.500;10.020;2022-09-09T01:26:59;42.40;;;25.70;;
5742;SDS011;2896;53.500;10.020;2022-09-09T01:29:28;38.90;;;24.40;;
5742;SDS011;2896;53.500;10.020;2022-09-09T01:31:55;50.13;;;27.00;;
5742;SDS011;2896;53.500;10.020;2022-09-09T01:34:25;35.73;;;23.90;;
5742;SDS011;2896;53.500;10.020;2022-09-09T01:36:57;49.17;;;28.40;;
5742;SDS011;2896;53.500;10.020;2022-09-09T01:39:29;35.50;;;23.80;;
5742;SDS011;2896;53.500;10.020;2022-09-09T01:41:56;48.40;;;27.97;;
5742;SDS011;2896;53.500;10.020;2022-09-09T01:44:25;49.03;;;29.63;;
5742;SDS011;2896;53.500;10.020;2022-09-09T01:46:53;42.03;;;26.70;;
5742;SDS011;2896;53.500;10.020;2022-09-09T01:49:20;39.37;;;25.37;;
5742;SDS011;2896;53.500;10.020;2022-09-09T01:51:48;105.30;;;30.77;;
5742;SDS011;2896;53.500;10.020;2022-09-09T01:54:18;398.23;;;36.10;;
5742;SDS011;2896;53.500;10.020;2022-09-09T01:56:47;42.63;;;27.73;;
5742;SDS011;2896;53.500;10.020;2022-09-09T01:59:30;73.60;;;28.70;;
5742;SDS011;2896;53.500;10.020;2022-09-09T02:02:11;39.63;;;23.30;;
5742;SDS011;2896;53.500;10.020;2022-09-09T02:04:42;28.63;;;19.03;;
5742;SDS011;2896;53.500;10.020;2022-09-09T02:07:18;39.70;;;24.90;;
5742;SDS011;2896;53.500;10.020;2022-09-09T02:09:56;39.43;;;22.87;;
5742;SDS011;2896;53.500;10.020;2022-09-09T02:12:27;28.93;;;20.43;;
5742;SDS011;2896;53.500;10.020;2022-09-09T02:14:59;31.17;;;23.10;;
5742;SDS011;2896;53.500;10.020;2022-09-09T02:17:33;30.10;;;19.53;;
5742;SDS011;2896;53.500;10.020;2022-09-09T02:20:03;42.30;;;21.70;;
5742;SDS011;2896;53.500;10.020;2022-09-09T02:22:33;38.00;;;19.20;;
5742;SDS011;2896;53.500;10.020;2022-09-09T02:25:01;105.30;;;22.97;;
5742;SDS011;2896;53.500;10.020;2022-09-09T02:27:31;30.93;;;21.57;;
5742;SDS011;2896;53.500;10.020;2022-09-09T02:29:59;196.57;;;25.53;;
5742;SDS011;2896;53.500;10.020;2022-09-09T02:32:28;219.80;;;24.83;;
5742;SDS011;2896;53.500;10.020;2022-09-09T02:34:58;40.37;;;20.47;;
5742;SDS011;2896;53.500;10.020;2022-09-09T02:37:29;25.60;;;18.83;;
5742;SDS011;2896;53.500;10.020;2022-09-09T02:40:01;67.70;;;20.30;;
5742;SDS011;2896;53.500;10.020;2022-09-09T02:42:29;154.73;;;23.63;;
5742;SDS011;2896;53.500;10.020;2022-09-09T02:44:55;29.13;;;19.47;;
5742;SDS011;2896;53.500;10.020;2022-09-09T02:47:27;25.67;;;18.50;;
5742;SDS011;2896;53.500;10.020;2022-09-09T02:50:07;22.63;;;15.97;;
5742;SDS011;2896;53.500;10.020;2022-09-09T02:52:42;142.93;;;22.50;;
5742;SDS011;2896;53.500;10.020;2022-09-09T02:55:26;20.90;;;16.60;;
5742;SDS011;2896;53.500;10.020;2022-09-09T02:58:01;23.40;;;16.70;;
5742;SDS011;2896;53.500;10.020;2022-09-09T03:00:32;55.27;;;21.30;;
5742;SDS011;2896;53.500;10.020;2022-09-09T03:03:02;165.50;;;25.57;;
5742;SDS011;2896;53.500;10.020;2022-09-09T03:05:29;61.50;;;22.43;;
5742;SDS011;2896;53.500;10.020;2022-09-09T03:07:56;19.73;;;16.13;;
5742;SDS011;2896;53.500;10.020;2022-09-09T03:10:23;21.30;;;16.43;;
5742;SDS011;2896;53.500;10.020;2022-09-09T03:12:50;93.50;;;21.43;;
5742;SDS011;2896;53.500;10.020;2022-09-09T03:15:17;25.30;;;18.77;;
5742;SDS011;2896;53.500;10.020;2022-09-09T03:17:44;44.20;;;20.23;;
5742;SDS011;2896;53.500;10.020;2022-09-09T03:20:12;22.87;;;17.63;;
5742;SDS011;2896;53.500;10.020;2022-09-09T03:22:39;26.87;;;19.10;;
5742;SDS011;2896;53.500;10.020;2022-09-09T03:25:06;34.73;;;20.60;;
5742;SDS011;2896;53.500;10.020;2022-09-09T03:27:33;21.80;;;17.30;;
5742;SDS011;2896;53.500;10.020;2022-09-09T03:30:00;25.07;;;17.40;;
5742;SDS011;2896;53.500;10.020;2022-09-09T03:32:28;31.10;;;18.70;;
5742;SDS011;2896;53.500;10.020;2022-09-09T03:34:56;24.03;;;15.73;;
5742;SDS011;2896;53.500;10.020;2022-09-09T03:37:24;17.93;;;14.63;;
5742;SDS011;2896;53.500;10.020;2022-09-09T03:39:52;27.30;;;18.03;;
5742;SDS011;2896;53.500;10.020;2022-09-09T03:42:19;32.17;;;15.07;;
5742;SDS011;2896;53.500;10.020;2022-09-09T03:44:46;26.13;;;15.93;;
5742;SDS011;2896;53.500;10.020;2022-09-09T03:47:15;15.87;;;14.10;;
5742;SDS011;2896;53.500;10.020;2022-09-09T03:49:43;71.43;;;16.87;;
5742;SDS011;2896;53.500;10.020;2022-09-09T03:52:09;56.90;;;17.30;;
5742;SDS011;2896;53.500;10.020;2022-09-09T03:54:38;14.73;;;13.07;;
5742;SDS011;2896;53.500;10.020;2022-09-09T03:57:06;24.77;;;13.63;;
5742;SDS011;2896;53.500;10.020;2022-09-09T03:59:33;16.63;;;12.83;;
5742;SDS011;2896;53.500;10.020;2022-09-09T04:02:00;15.17;;;13.50;;
5742;SDS011;2896;53.500;10.020;2022-09-09T04:04:27;12.13;;;10.93;;
5742;SDS011;2896;53.500;10.020;2022-09-09T04:06:53;19.63;;;13.87;;
5742;SDS011;2896;53.500;10.020;2022-09-09T04:09:20;14.80;;;13.20;;
5742;SDS011;2896;53.500;10.020;2022-09-09T04:11:49;13.60;;;12.30;;
5742;SDS011;2896;53.500;10.020;2022-09-09T04:14:16;12.93;;;11.63;;
5742;SDS011;2896;53.500;10.020;2022-09-09T04:16:43;22.57;;;15.40;;
5742;SDS011;2896;53.500;10.020;2022-09-09T04:19:10;15.47;;;13.93;;
5742;SDS011;2896;53.500;10.020;2022-09-09T04:21:38;15.80;;;14.20;;
5742;SDS011;2896;53.500;10.020;2022-09-09T04:24:05;23.10;;;13.50;;
5742;SDS011;2896;53.500;10.020;2022-09-09T04:26:32;16.20;;;14.50;;
5742;SDS011;2896;53.500;10.020;2022-09-09T04:29:01;18.30;;;15.20;;
5742;SDS011;2896;53.500;10.020;2022-09-09T04:31:28;17.23;;;15.00;;
5742;SDS011;2896;53.500;10.020;2022-09-09T04:33:55;16.90;;;14.80;;
5742;SDS011;2896;53.500;10.020;2022-09-09T04:36:21;19.47;;;15.70;;
5742;SDS011;2896;53.500;10.020;2022-09-09T04:38:49;17.73;;;15.77;;
5742;SDS011;2896;53.500;10.020;2022-09-09T04:41:16;20.00;;;16.03;;
5742;SDS011;2896;53.500;10.020;2022-09-09T04:43:43;32.63;;;17.80;;
5742;SDS011;2896;53.500;10.020;2022-09-09T04:46:11;26.60;;;16.37;;
5742;SDS011;2896;53.500;10.020;2022-09-09T04:48:38;22.30;;;17.07;;
5742;SDS011;2896;53.500;10.020;2022-09-09T04:51:05;29.27;;;18.43;;
5742;SDS011;2896;53.500;10.020;2022-09-09T04:53:35;25.17;;;18.13;;
5742;SDS011;2896;53.500;10.020;2022-09-09T04:56:02;22.70;;;16.90;;
5742;SDS011;2896;53.500;10.020;2022-09-09T04:58:31;18.37;;;15.27;;
5742;SDS011;2896;53.500;10.020;2022-09-09T05:01:04;16.70;;;14.77;;
5742;SDS011;2896;53.500;10.020;2022-09-09T05:03:34;24.40;;;16.70;;
5742;SDS011;2896;53.500;10.020;2022-09-09T05:06:05;16.20;;;14.00;;
5742;SDS011;2896;53.500;10.020;2022-09-09T05:08:33;24.83;;;17.60;;
5742;SDS011;2896;53.500;10.020;2022-09-09T05:11:00;22.70;;;14.93;;
5742;SDS011;2896;53.500;10.020;2022-09-09T05:13:27;19.40;;;15.67;;
5742;SDS011;2896;53.500;10.020;2022-09-09T05:15:57;19.47;;;15.57;;
5742;SDS011;2896;53.500;10.020;2022-09-09T05:18:23;19.53;;;17.43;;
5742;SDS011;2896;53.500;10.020;2022-09-09T05:20:51;21.77;;;17.10;;
5742;SDS011;2896;53.500;10.020;2022-09-09T05:23:18;15.63;;;13.93;;
5742;SDS011;2896;53.500;10.020;2022-09-09T05:25:53;22.00;;;16.90;;
5742;SDS011;2896;53.500;10.020;2022-09-09T05:28:23;30.93;;;18.23;;
5742;SDS011;2896;53.500;10.020;2022-09-09T05:30:55;27.70;;;18.97;;
5742;SDS011;2896;53.500;10.020;2022-09-09T05:33:23;26.90;;;16.50;;
5742;SDS011;2896;53.500;10.020;2022-09-09T05:35:55;16.90;;;13.97;;
5742;SDS011;2896;53.500;10.020;2022-09-09T05:38:27;21.23;;;14.67;;
5742;SDS011;2896;53.500;10.020;2022-09-09T05:40:54;18.70;;;13.87;;
5742;SDS011;2896;53.500;10.020;2022-09-09T05:43:22;18.10;;;14.50;;
5742;SDS011;2896;53.500;10.020;2022-09-09T05:45:58;23.73;;;17.00;;
5742;SDS011;2896;53.500;10.020;2022-09-09T05:48:27;28.63;;;16.57;;
5742;SDS011;2896;53.500;10.020;2022-09-09T05:50:56;26.63;;;18.47;;
5742;SDS011;2896;53.500;10.020;2022-09-09T05:53:23;24.50;;;18.10;;
5742;SDS011;2896;53.500;10.020;2022-09-09T05:55:50;22.20;;;17.33;;
5742;SDS011;2896;53.500;10.020;2022-09-09T05:58:23;20.83;;;15.20;;
5742;SDS011;2896;53.500;10.020;2022-09-09T06:00:50;27.50;;;16.40;;
5742;SDS011;2896;53.500;10.020;2022-09-09T06:03:16;26.13;;;17.87;;
5742;SDS011;2896;53.500;10.020;2022-09-09T06:05:43;24.30;;;17.13;;
5742;SDS011;2896;53.500;10.020;2022-09-09T06:08:11;21.53;;;15.53;;
5742;SDS011;2896;53.500;10.020;2022-09-09T06:10:38;21.33;;;16.60;;
5742;SDS011;2896;53.500;10.020;2022-09-09T06:13:04;19.60;;;15.90;;
5742;SDS011;2896;53.500;10.020;2022-09-09T06:15:31;23.67;;;16.23;;
5742;SDS011;2896;53.500;10.020;2022-09-09T06:17:59;25.33;;;16.30;;
5742;SDS011;2896;53.500;10.020;2022-09-09T06:20:25;13.47;;;12.03;;
5742;SDS011;2896;53.500;10.020;2022-09-09T06:22:55;19.97;;;14.63;;
5742;SDS011;2896;53.500;10.020;2022-09-09T06:25:23;21.83;;;13.90;;
5742;SDS011;2896;53.500;10.020;2022-09-09T06:27:50;16.50;;;12.30;;
5742;SDS011;2896;53.500;10.020;2022-09-09T06:30:16;16.27;;;12.70;;
5742;SDS011;2896;53.500;10.020;2022-09-09T06:32:43;15.80;;;11.50;;
5742;SDS011;2896;53.500;10.020;2022-09-09T06:35:10;13.00;;;11.60;;
5742;SDS011;2896;53.500;10.020;2022-09-09T06:37:36;19.50;;;11.73;;
5742;SDS011;2896;53.500;10.020;2022-09-09T06:40:03;14.67;;;11.43;;
5742;SDS011;2896;53.500;10.020;2022-09-09T06:42:32;15.13;;;11.27;;
5742;SDS011;2896;53.500;10.020;2022-09-09T06:44:59;29.03;;;10.53;;
5742;SDS011;2896;53.500;10.020;2022-09-09T06:47:25;12.63;;;9.83;;
5742;SDS011;2896;53.500;10.020;2022-09-09T06:49:53;17.03;;;10.90;;
5742;SDS011;2896;53.500;10.020;2022-09-09T06:52:21;14.87;;;11.40;;
5742;SDS011;2896;53.500;10.020;2022-09-09T06:54:48;10.83;;;9.73;;
5742;SDS011;2896;53.500;10.020;2022-09-09T06:57:15;13.83;;;10.80;;
5742;SDS011;2896;53.500;10.020;2022-09-09T06:59:43;11.10;;;9.37;;
5742;SDS011;2896;53.500;10.020;2022-09-09T07:02:09;11.63;;;10.30;;
5742;SDS011;2896;53.500;10.020;2022-09-09T07:04:36;12.00;;;10.03;;
5742;SDS011;2896;53.500;10.020;2022-09-09T07:07:03;11.60;;;10.40;;
5742;SDS011;2896;53.500;10.020;2022-09-09T07:09:29;11.93;;;9.30;;
5742;SDS011;2896;53.500;10.020;2022-09-09T07:11:56;12.40;;;9.70;;
5742;SDS011;2896;53.500;10.020;2022-09-09T07:14:24;9.90;;;8.53;;
5742;SDS011;2896;53.500;10.020;2022-09-09T07:16:53;15.23;;;9.07;;
5742;SDS011;2896;53.500;10.020;2022-09-09T07:19:20;8.00;;;7.40;;
5742;SDS011;2896;53.500;10.020;2022-09-09T07:21:46;12.63;;;8.63;;
5742;SDS011;2896;53.500;10.020;2022-09-09T07:24:13;8.63;;;7.73;;
5742;SDS011;2896;53.500;10.020;2022-09-09T07:26:40;9.40;;;8.50;;
5742;SDS011;2896;53.500;10.020;2022-09-09T07:29:07;11.03;;;9.60;;
5742;SDS011;2896;53.500;10.020;2022-09-09T07:31:34;7.50;;;7.00;;
5742;SDS011;2896;53.500;10.020;2022-09-09T07:34:04;10.80;;;7.47;;
5742;SDS011;2896;53.500;10.020;2022-09-09T07:36:32;11.60;;;7.00;;
5742;SDS011;2896;53.500;10.020;2022-09-09T07:39:02;7.93;;;7.07;;
5742;SDS011;2896;53.500;10.020;2022-09-09T07:41:31;7.03;;;6.43;;
5742;SDS011;2896;53.500;10.020;2022-09-09T07:44:03;9.60;;;7.00;;
5742;SDS011;2896;53.500;10.020;2022-09-09T07:46:31;14.90;;;6.97;;
5742;SDS011;2896;53.500;10.020;2022-09-09T07:48:59;16.90;;;6.63;;
5742;SDS011;2896;53.500;10.020;2022-09-09T07:51:28;8.03;;;6.90;;
5742;SDS011;2896;53.500;10.020;2022-09-09T07:53:56;9.03;;;5.80;;
5742;SDS011;2896;53.500;10.020;2022-09-09T07:56:25;9.73;;;5.63;;
5742;SDS011;2896;53.500;10.020;2022-09-09T07:58:54;7.70;;;6.30;;
5742;SDS011;2896;53.500;10.020;2022-09-09T08:01:23;12.10;;;6.00;;
5742;SDS011;2896;53.500;10.020;2022-09-09T08:03:53;10.53;;;6.10;;
5742;SDS011;2896;53.500;10.020;2022-09-09T08:06:23;12.57;;;5.73;;
5742;SDS011;2896;53.500;10.020;2022-09-09T08:08:53;10.43;;;6.00;;
5742;SDS011;2896;53.500;10.020;2022-09-09T08:11:20;16.13;;;7.37;;
5742;SDS011;2896;53.500;10.020;2022-09-09T08:13:49;12.83;;;6.00;;
5742;SDS011;2896;53.500;10.020;2022-09-09T08:16:18;23.10;;;5.07;;
5742;SDS011;2896;53.500;10.020;2022-09-09T08:18:46;7.20;;;5.80;;
5742;SDS011;2896;53.500;10.020;2022-09-09T08:21:14;7.60;;;4.90;;
5742;SDS011;2896;53.500;10.020;2022-09-09T08:23:43;5.23;;;4.37;;
5742;SDS011;2896;53.500;10.020;2022-09-09T08:26:14;5.10;;;4.30;;
5742;SDS011;2896;53.500;10.020;2022-09-09T08:28:42;5.23;;;4.73;;
5742;SDS011;2896;53.500;10.020;2022-09-09T08:31:10;14.23;;;4.90;;
5742;SDS011;2896;53.500;10.020;2022-09-09T08:33:38;5.03;;;4.30;;
5742;SDS011;2896;53.500;10.020;2022-09-09T08:36:06;8.63;;;4.40;;
5742;SDS011;2896;53.500;10.020;2022-09-09T08:38:36;4.60;;;4.20;;
5742;SDS011;2896;53.500;10.020;2022-09-09T08:41:07;5.67;;;4.20;;
5742;SDS011;2896;53.500;10.020;2022-09-09T08:43:58;5.07;;;3.73;;
5742;SDS011;2896;53.500;10.020;2022-09-09T08:46:32;13.63;;;5.00;;
5742;SDS011;2896;53.500;10.020;2022-09-09T08:49:06;4.50;;;4.07;;
5742;SDS011;2896;53.500;10.020;2022-09-09T08:51:44;15.33;;;3.80;;
5742;SDS011;2896;53.500;10.020;2022-09-09T08:54:11;4.23;;;3.93;;
5742;SDS011;2896;53.500;10.020;2022-09-09T08:56:39;5.60;;;4.40;;
5742;SDS011;2896;53.500;10.020;2022-09-09T08:59:07;4.97;;;3.80;;
5742;SDS011;2896;53.500;10.020;2022-09-09T09:01:41;5.70;;;4.07;;
5742;SDS011;2896;53.500;10.020;2022-09-09T09:04:24;5.33;;;3.60;;
5742;SDS011;2896;53.500;10.020;2022-09-09T09:07:00;9.20;;;3.27;;
5742;SDS011;2896;53.500;10.020;2022-09-09T09:09:40;5.17;;;3.53;;
5742;SDS011;2896;53.500;10.020;2022-09-09T09:12:16;11.63;;;3.63;;
5742;SDS011;2896;53.500;10.020;2022-09-09T09:14:45;7.07;;;3.60;;
5742;SDS011;2896;53.500;10.020;2022-09-09T09:17:14;7.30;;;3.33;;
5742;SDS011;2896;53.500;10.020;2022-09-09T09:19:44;8.47;;;3.13;;
5742;SDS011;2896;53.500;10.020;2022-09-09T09:22:14;5.03;;;3.40;;
5742;SDS011;2896;53.500;10.020;2022-09-09T09:24:46;3.93;;;3.40;;
5742;SDS011;2896;53.500;10.020;2022-09-09T09:27:21;4.93;;;3.37;;
5742;SDS011;2896;53.500;10.020;2022-09-09T09:29:56;4.10;;;3.70;;
5742;SDS011;2896;53.500;10.020;2022-09-09T09:32:24;4.60;;;3.60;;
5742;SDS011;2896;53.500;10.020;2022-09-09T09:34:54;4.80;;;3.03;;
5742;SDS011;2896;53.500;10.020;2022-09-09T09:37:24;3.80;;;3.50;;
5742;SDS011;2896;53.500;10.020;2022-09-09T09:39:54;5.27;;;3.17;;
5742;SDS011;2896;53.500;10.020;2022-09-09T09:42:22;3.30;;;2.67;;
5742;SDS011;2896;53.500;10.020;2022-09-09T09:44:49;3.23;;;3.03;;
5742;SDS011;2896;53.500;10.020;2022-09-09T09:47:16;2.87;;;2.70;;
5742;SDS011;2896;53.500;10.020;2022-09-09T09:49:53;8.73;;;3.47;;
5742;SDS011;2896;53.500;10.020;2022-09-09T09:52:22;6.20;;;3.07;;
5742;SDS011;2896;53.500;10.020;2022-09-09T09:54:50;4.53;;;2.87;;
5742;SDS011;2896;53.500;10.020;2022-09-09T09:57:18;5.40;;;2.73;;
5742;SDS011;2896;53.500;10.020;2022-09-09T10:00:00;2.53;;;2.07;;
5742;SDS011;2896;53.500;10.020;2022-09-09T10:02:31;5.17;;;2.57;;
5742;SDS011;2896;53.500;10.020;2022-09-09T10:05:06;2.77;;;2.30;;
5742;SDS011;2896;53.500;10.020;2022-09-09T10:07:40;2.53;;;2.27;;
5742;SDS011;2896;53.500;10.020;2022-09-09T10:10:12;3.87;;;2.20;;
5742;SDS011;2896;53.500;10.020;2022-09-09T10:12:50;2.00;;;1.90;;
5742;SDS011;2896;53.500;10.020;2022-09-09T10:15:34;6.70;;;2.10;;
5742;SDS011;2896;53.500;10.020;2022-09-09T10:18:24;2.67;;;1.80;;
5742;SDS011;2896;53.500;10.020;2022-09-09T10:21:16;3.10;;;1.63;;
5742;SDS011;2896;53.500;10.020;2022-09-09T10:23:56;2.10;;;1.63;;
5742;SDS011;2896;53.500;10.020;2022-09-09T10:26:39;2.20;;;1.30;;
5742;SDS011;2896;53.500;10.020;2022-09-09T10:29:28;1.00;;;1.00;;
5742;SDS011;2896;53.500;10.020;2022-09-09T10:32:12;4.43;;;1.30;;
5742;SDS011;2896;53.500;10.020;2022-09-09T10:34:56;2.20;;;1.30;;
5742;SDS011;2896;53.500;10.020;2022-09-09T10:37:34;10.93;;;1.10;;
5742;SDS011;2896;53.500;10.020;2022-09-09T10:40:21;2.80;;;1.00;;
5742;SDS011;2896;53.500;10.020;2022-09-09T10:42:55;1.73;;;1.30;;
5742;SDS011;2896;53.500;10.020;2022-09-09T10:45:34;1.83;;;1.17;;
5742;SDS011;2896;53.500;10.020;2022-09-09T10:48:11;2.00;;;1.00;;
5742;SDS011;2896;53.500;10.020;2022-09-09T10:50:52;1.93;;;1.20;;
5742;SDS011;2896;53.500;10.020;2022-09-09T10:53:32;2.00;;;1.30;;
5742;SDS011;2896;53.500;10.020;2022-09-09T10:56:04;3.37;;;1.00;;
5742;SDS011;2896;53.500;10.020;2022-09-09T10:58:35;4.57;;;1.47;;
5742;SDS011;2896;53.500;10.020;2022-09-09T11:01:11;3.17;;;1.23;;
5742;SDS011;2896;53.500;10.020;2022-09-09T11:03:42;1.70;;;1.50;;
5742;SDS011;2896;53.500;10.020;2022-09-09T11:06:12;1.63;;;1.17;;
5742;SDS011;2896;53.500;10.020;2022-09-09T11:08:42;1.30;;;1.20;;
5742;SDS011;2896;53.500;10.020;2022-09-09T11:11:10;1.80;;;1.70;;
5742;SDS011;2896;53.500;10.020;2022-09-09T11:13:44;1.70;;;1.60;;
5742;SDS011;2896;53.500;10.020;2022-09-09T11:16:19;3.87;;;1.70;;
5742;SDS011;2896;53.500;10.020;2022-09-09T11:18:52;2.10;;;1.70;;
5742;SDS011;2896;53.500;10.020;2022-09-09T11:21:24;7.43;;;1.63;;
5742;SDS011;2896;53.500;10.020;2022-09-09T11:23:55;2.90;;;1.53;;
5742;SDS011;2896;53.500;10.020;2022-09-09T11:26:28;3.23;;;1.50;;
5742;SDS011;2896;53.500;10.020;2022-09-09T11:29:02;2.00;;;1.57;;
5742;SDS011;2896;53.500;10.020;2022-09-09T11:31:53;1.80;;;1.40;;
5742;SDS011;2896;53.500;10.020;2022-09-09T11:34:35;2.87;;;1.60;;
5742;SDS011;2896;53.500;10.020;2022-09-09T11:37:15;3.27;;;1.70;;
5742;SDS011;2896;53.500;10.020;2022-09-09T11:40:14;6.40;;;1.80;;
5742;SDS011;2896;53.500;10.020;2022-09-09T11:42:44;2.63;;;1.77;;
5742;SDS011;2896;53.500;10.020;2022-09-09T11:45:22;4.03;;;1.80;;
5742;SDS011;2896;53.500;10.020;2022-09-09T11:47:55;17.40;;;1.90;;
5742;SDS011;2896;53.500;10.020;2022-09-09T11:50:27;1.40;;;1.30;;
5742;SDS011;2896;53.500;10.020;2022-09-09T11:53:03;1.67;;;1.60;;
5742;SDS011;2896;53.500;10.020;2022-09-09T11:55:47;10.50;;;2.10;;
5742;SDS011;2896;53.500;10.020;2022-09-09T11:58:26;2.60;;;1.57;;
5742;SDS011;2896;53.500;10.020;2022-09-09T12:00:57;2.60;;;1.53;;
5742;SDS011;2896;53.500;10.020;2022-09-09T12:03:36;2.33;;;1.47;;
5742;SDS011;2896;53.500;10.020;2022-09-09T12:06:09;2.37;;;1.30;;
5742;SDS011;2896;53.500;10.020;2022-09-09T12:08:40;5.50;;;1.83;;
5742;SDS011;2896;53.500;10.020;2022-09-09T12:11:09;5.50;;;2.07;;
5742;SDS011;2896;53.500;10.020;2022-09-09T12:13:37;1.63;;;1.33;;
5742;SDS011;2896;53.500;10.020;2022-09-09T12:16:04;2.80;;;1.50;;
5742;SDS011;2896;53.500;10.020;2022-09-09T12:18:32;2.90;;;1.23;;
5742;SDS011;2896;53.500;10.020;2022-09-09T12:21:03;9.63;;;1.60;;
5742;SDS011;2896;53.500;10.020;2022-09-09T12:23:39;1.50;;;1.40;;
5742;SDS011;2896;53.500;10.020;2022-09-09T12:26:21;3.63;;;1.90;;
5742;SDS011;2896;53.500;10.020;2022-09-09T12:28:56;2.93;;;1.40;;
5742;SDS011;2896;53.500;10.020;2022-09-09T12:31:31;2.90;;;1.93;;
5742;SDS011;2896;53.500;10.020;2022-09-09T12:34:04;2.80;;;1.77;;
5742;SDS011;2896;53.500;10.020;2022-09-09T12:36:38;7.40;;;1.90;;
5742;SDS011;2896;53.500;10.020;2022-09-09T12:39:10;3.50;;;1.97;;
5742;SDS011;2896;53.500;10.020;2022-09-09T12:41:50;2.20;;;2.00;;
5742;SDS011;2896;53.500;10.020;2022-09-09T12:44:21;8.43;;;1.90;;
5742;SDS011;2896;53.500;10.020;2022-09-09T12:46:48;16.57;;;2.23;;
5742;SDS011;2896;53.500;10.020;2022-09-09T12:49:24;5.80;;;2.17;;
5742;SDS011;2896;53.500;10.020;2022-09-09T12:51:55;4.10;;;2.23;;
5742;SDS011;2896;53.500;10.020;2022-09-09T12:54:23;3.37;;;2.03;;
5742;SDS011;2896;53.500;10.020;2022-09-09T12:56:50;6.30;;;2.40;;
5742;SDS011;2896;53.500;10.020;2022-09-09T12:59:21;2.70;;;2.50;;
5742;SDS011;2896;53.500;10.020;2022-09-09T13:01:54;7.53;;;3.13;;
5742;SDS011;2896;53.500;10.020;2022-09-09T13:04:22;4.77;;;3.30;;
5742;SDS011;2896;53.500;10.020;2022-09-09T13:06:48;4.87;;;2.93;;
5742;SDS011;2896;53.500;10.020;2022-09-09T13:09:18;2.93;;;2.73;;
5742;SDS011;2896;53.500;10.020;2022-09-09T13:11:46;6.50;;;2.73;;
5742;SDS011;2896;53.500;10.020;2022-09-09T13:14:17;8.87;;;2.90;;
5742;SDS011;2896;53.500;10.020;2022-09-09T13:16:54;8.73;;;3.70;;
5742;SDS011;2896;53.500;10.020;2022-09-09T13:19:22;2.87;;;2.60;;
5742;SDS011;2896;53.500;10.020;2022-09-09T13:21:52;5.67;;;2.87;;
5742;SDS011;2896;53.500;10.020;2022-09-09T13:24:24;6.30;;;2.80;;
5742;SDS011;2896;53.500;10.020;2022-09-09T13:26:55;8.07;;;3.20;;
5742;SDS011;2896;53.500;10.020;2022-09-09T13:29:22;5.70;;;3.70;;
5742;SDS011;2896;53.500;10.020;2022-09-09T13:31:49;10.27;;;3.67;;
5742;SDS011;2896;53.500;10.020;2022-09-09T13:34:25;7.33;;;3.70;;
5742;SDS011;2896;53.500;10.020;2022-09-09T13:36:54;8.57;;;3.00;;
5742;SDS011;2896;53.500;10.020;2022-09-09T13:39:28;6.60;;;2.77;;
5742;SDS011;2896;53.500;10.020;2022-09-09T13:41:54;8.53;;;3.00;;
5742;SDS011;2896;53.500;10.020;2022-09-09T13:44:22;8.17;;;3.03;;
5742;SDS011;2896;53.500;10.020;2022-09-09T13:47:01;10.20;;;4.00;;
5742;SDS011;2896;53.500;10.020;2022-09-09T13:49:29;5.03;;;3.03;;
5742;SDS011;2896;53.500;10.020;2022-09-09T13:52:05;3.80;;;2.73;;
5742;SDS011;2896;53.500;10.020;2022-09-09T13:54:37;6.77;;;3.67;;
5742;SDS011;2896;53.500;10.020;2022-09-09T13:57:04;4.50;;;3.60;;
5742;SDS011;2896;53.500;10.020;2022-09-09T13:59:31;8.00;;;3.50;;
5742;SDS011;2896;53.500;10.020;2022-09-09T14:01:58;9.17;;;3.93;;
5742;SDS011;2896;53.500;10.020;2022-09-09T14:04:26;8.00;;;4.23;;
5742;SDS011;2896;53.500;10.020;2022-09-09T14:06:53;11.30;;;4.53;;
5742;SDS011;2896;53.500;10.020;2022-09-09T14:09:24;8.73;;;4.00;;
5742;SDS011;2896;53.500;10.020;2022-09-09T14:11:52;6.70;;;4.43;;
5742;SDS011;2896;53.500;10.020;2022-09-09T14:14:20;5.80;;;4.37;;
5742;SDS011;2896;53.500;10.020;2022-09-09T14:16:46;4.07;;;3.40;;
5742;SDS011;2896;53.500;10.020;2022-09-09T14:19:13;8.43;;;4.40;;
5742;SDS011;2896;53.500;10.020;2022-09-09T14:21:39;6.70;;;2.97;;
5742;SDS011;2896;53.500;10.020;2022-09-09T14:24:06;2.90;;;2.70;;
5742;SDS011;2896;53.500;10.020;2022-09-09T14:26:33;5.60;;;2.50;;
5742;SDS011;2896;53.500;10.020;2022-09-09T14:29:01;2.37;;;2.17;;
5742;SDS011;2896;53.500;10.020;2022-09-09T14:31:27;3.50;;;2.80;;
5742;SDS011;2896;53.500;10.020;2022-09-09T14:33:54;2.37;;;2.23;;
5742;SDS011;2896;53.500;10.020;2022-09-09T14:36:21;4.60;;;2.20;;
5742;SDS011;2896;53.500;10.020;2022-09-09T14:38:49;3.43;;;2.63;;
5742;SDS011;2896;53.500;10.020;2022-09-09T14:41:17;3.03;;;2.20;;
5742;SDS011;2896;53.500;10.020;2022-09-09T14:43:46;7.17;;;2.67;;
5742;SDS011;2896;53.500;10.020;2022-09-09T14:46:15;7.90;;;2.10;;
5742;SDS011;2896;53.500;10.020;2022-09-09T14:48:43;2.37;;;1.97;;
5742;SDS011;2896;53.500;10.020;2022-09-09T14:51:10;2.57;;;2.00;;
5742;SDS011;2896;53.500;10.020;2022-09-09T14:53:38;2.07;;;1.97;;
5742;SDS011;2896;53.500;10.020;2022-09-09T14:56:06;4.10;;;2.47;;
5742;SDS011;2896;53.500;10.020;2022-09-09T14:58:33;2.30;;;2.20;;
5742;SDS011;2896;53.500;10.020;2022-09-09T15:01:04;2.23;;;2.10;;
5742;SDS011;2896;53.500;10.020;2022-09-09T15:03:32;4.63;;;2.53;;
5742;SDS011;2896;53.500;10.020;2022-09-09T15:06:04;4.83;;;2.40;;
5742;SDS011;2896;53.500;10.020;2022-09-09T15:08:33;7.23;;;2.20;;
5742;SDS011;2896;53.500;10.020;2022-09-09T15:11:00;3.93;;;2.57;;